createdAt,value
2023-04-30T00:01:40.479Z,6.10
2023-04-30T00:04:07.916Z,6.27
2023-04-30T00:06:35.402Z,6.30
2023-04-30T00:09:03.139Z,6.70
2023-04-30T00:11:30.530Z,7.20
2023-04-30T00:13:57.927Z,7.00
2023-04-30T00:16:26.912Z,6.90
2023-04-30T00:18:54.310Z,6.33
2023-04-30T00:21:21.802Z,6.93
2023-04-30T00:23:49.201Z,7.00
2023-04-30T00:26:16.638Z,6.03
2023-04-30T00:28:47.556Z,6.70
2023-04-30T00:31:14.934Z,6.13
2023-04-30T00:33:43.739Z,6.27
2023-04-30T00:36:11.268Z,6.30
2023-04-30T00:38:39.944Z,6.83
2023-04-30T00:41:07.312Z,7.17
2023-04-30T00:43:35.198Z,7.43
2023-04-30T00:46:03.798Z,7.17
2023-04-30T00:48:31.394Z,7.33
2023-04-30T00:51:00.428Z,7.50
2023-04-30T00:53:27.969Z,7.40
2023-04-30T00:55:56.154Z,8.23
2023-04-30T00:58:23.575Z,7.83
2023-04-30T01:00:51.813Z,7.23
2023-04-30T01:03:19.520Z,7.67
2023-04-30T01:05:47.044Z,7.43
2023-04-30T01:08:15.901Z,7.37
2023-04-30T01:10:58.652Z,7.53
2023-04-30T01:13:29.781Z,6.63
2023-04-30T01:16:00.335Z,8.03
2023-04-30T01:18:30.434Z,6.37
2023-04-30T01:21:01.679Z,6.07
2023-04-30T01:23:38.394Z,7.00
2023-04-30T01:26:11.885Z,7.23
2023-04-30T01:28:41.341Z,7.43
2023-04-30T01:31:12.367Z,7.63
2023-04-30T01:33:39.807Z,7.27
2023-04-30T01:36:14.510Z,6.73
2023-04-30T01:38:51.340Z,6.63
2023-04-30T01:41:21.693Z,6.50
2023-04-30T01:43:56.907Z,6.37
2023-04-30T01:46:27.222Z,6.47
2023-04-30T01:48:56.216Z,6.40
2023-04-30T01:51:29.606Z,7.47
2023-04-30T01:53:58.410Z,7.27
2023-04-30T01:56:28.710Z,7.47
2023-04-30T01:58:57.713Z,7.10
2023-04-30T02:01:28.919Z,7.40
2023-04-30T02:03:56.634Z,7.37
2023-04-30T02:06:28.296Z,7.53
2023-04-30T02:08:56.691Z,7.13
2023-04-30T02:11:24.175Z,6.93
2023-04-30T02:13:51.641Z,7.47
2023-04-30T02:16:20.418Z,6.87
2023-04-30T02:18:48.514Z,7.57
2023-04-30T02:21:16.067Z,8.10
2023-04-30T02:23:43.469Z,7.23
2023-04-30T02:26:10.866Z,7.27
2023-04-30T02:28:38.235Z,7.70
2023-04-30T02:31:05.882Z,7.60
2023-04-30T02:33:34.615Z,7.20
2023-04-30T02:36:02.899Z,7.03
2023-04-30T02:38:30.280Z,7.00
2023-04-30T02:40:57.614Z,7.63
2023-04-30T02:43:25.036Z,6.47
2023-04-30T02:45:52.434Z,6.60
2023-04-30T02:48:19.847Z,7.17
2023-04-30T02:50:48.533Z,6.90
2023-04-30T02:53:16.677Z,7.00
2023-04-30T02:55:44.044Z,7.23
2023-04-30T02:58:11.432Z,6.90
2023-04-30T03:00:38.786Z,18.30
2023-04-30T03:03:06.386Z,7.97
2023-04-30T03:05:33.942Z,7.20
2023-04-30T03:08:02.723Z,6.60
2023-04-30T03:10:30.131Z,6.80
2023-04-30T03:12:57.799Z,6.33
2023-04-30T03:15:25.307Z,6.67
2023-04-30T03:17:52.750Z,6.57
2023-04-30T03:20:20.375Z,7.20
2023-04-30T03:22:47.764Z,7.27
2023-04-30T03:25:16.785Z,7.20
2023-04-30T03:27:44.199Z,7.20
2023-04-30T03:30:11.744Z,7.60
2023-04-30T03:32:39.731Z,7.70
2023-04-30T03:35:07.639Z,6.30
2023-04-30T03:37:35.031Z,6.83
2023-04-30T03:40:03.525Z,6.23
2023-04-30T03:42:32.617Z,7.27
2023-04-30T03:44:59.969Z,6.73
2023-04-30T03:47:27.390Z,6.47
2023-04-30T03:49:55.747Z,7.03
2023-04-30T03:52:24.253Z,6.63
2023-04-30T03:54:51.731Z,6.43
2023-04-30T03:57:20.519Z,6.80
2023-04-30T03:59:49.762Z,6.43
2023-04-30T04:02:17.491Z,7.27
2023-04-30T04:04:44.932Z,6.83
2023-04-30T04:07:12.318Z,6.20
2023-04-30T04:09:39.711Z,6.70
2023-04-30T04:12:07.925Z,6.83
2023-04-30T04:14:35.994Z,6.80
2023-04-30T04:17:05.736Z,6.83
2023-04-30T04:19:33.371Z,7.13
2023-04-30T04:22:01.491Z,7.07
2023-04-30T04:24:29.483Z,6.57
2023-04-30T04:26:56.938Z,6.43
2023-04-30T04:29:24.408Z,6.97
2023-04-30T04:31:52.027Z,6.50
2023-04-30T04:34:20.943Z,7.07
2023-04-30T04:36:48.533Z,6.70
2023-04-30T04:39:15.939Z,6.30
2023-04-30T04:41:43.387Z,6.00
2023-04-30T04:44:10.831Z,6.43
2023-04-30T04:46:39.773Z,6.80
2023-04-30T04:49:07.903Z,6.17
2023-04-30T04:51:37.185Z,6.70
2023-04-30T04:54:04.862Z,6.27
2023-04-30T04:56:32.297Z,6.20
2023-04-30T04:58:59.727Z,6.33
2023-04-30T05:01:27.193Z,5.37
2023-04-30T05:03:55.255Z,6.73
2023-04-30T05:06:22.931Z,5.80
2023-04-30T05:08:51.861Z,6.87
2023-04-30T05:11:19.280Z,5.60
2023-04-30T05:13:47.469Z,5.70
2023-04-30T05:16:14.963Z,6.30
2023-04-30T05:18:42.384Z,6.33
2023-04-30T05:21:09.850Z,6.10
2023-04-30T05:23:37.262Z,6.83
2023-04-30T05:26:06.080Z,5.60
2023-04-30T05:28:33.823Z,6.73
2023-04-30T05:31:01.501Z,6.47
2023-04-30T05:33:28.878Z,5.87
2023-04-30T05:35:56.265Z,6.50
2023-04-30T05:38:23.872Z,6.50
2023-04-30T05:40:51.570Z,6.37
2023-04-30T05:43:20.465Z,6.37
2023-04-30T05:45:47.962Z,6.73
2023-04-30T05:48:15.587Z,6.83
2023-04-30T05:50:43.463Z,6.40
2023-04-30T05:53:11.080Z,7.33
2023-04-30T05:55:38.471Z,6.97
2023-04-30T05:58:06.358Z,6.83
2023-04-30T06:00:35.986Z,8.30
2023-04-30T06:03:03.426Z,6.43
2023-04-30T06:05:30.915Z,6.60
2023-04-30T06:07:58.342Z,7.60
2023-04-30T06:10:25.794Z,7.80
2023-04-30T06:12:53.197Z,7.50
2023-04-30T06:15:20.708Z,7.53
2023-04-30T06:17:49.498Z,7.03
2023-04-30T06:20:17.017Z,7.03
2023-04-30T06:22:44.386Z,8.07
2023-04-30T06:25:11.786Z,7.67
2023-04-30T06:27:39.343Z,7.30
2023-04-30T06:30:07.470Z,7.80
2023-04-30T06:32:34.886Z,6.70
2023-04-30T06:35:03.624Z,7.97
2023-04-30T06:37:35.782Z,6.63
2023-04-30T06:40:03.583Z,7.30
2023-04-30T06:42:34.270Z,6.60
2023-04-30T06:45:02.191Z,7.10
2023-04-30T06:47:29.898Z,7.43
2023-04-30T06:49:57.389Z,6.87
2023-04-30T06:52:26.322Z,7.27
2023-04-30T06:54:53.688Z,8.17
2023-04-30T06:57:21.129Z,7.43
2023-04-30T06:59:48.682Z,7.33
2023-04-30T07:02:16.121Z,6.87
2023-04-30T07:04:43.519Z,7.40
2023-04-30T07:07:10.895Z,7.10
2023-04-30T07:09:39.659Z,7.20
2023-04-30T07:12:07.101Z,7.70
2023-04-30T07:14:34.519Z,10.17
2023-04-30T07:17:01.902Z,8.67
2023-04-30T07:19:29.275Z,8.73
2023-04-30T07:21:56.683Z,8.43
2023-04-30T07:24:24.111Z,8.77
2023-04-30T07:26:52.862Z,7.87
2023-04-30T07:29:20.290Z,8.03
2023-04-30T07:31:47.708Z,8.20
2023-04-30T07:34:15.153Z,8.57
2023-04-30T07:36:42.524Z,8.10
2023-04-30T07:39:11.808Z,8.10
2023-04-30T07:41:39.241Z,7.37
2023-04-30T07:44:07.997Z,7.80
2023-04-30T07:46:36.439Z,8.40
2023-04-30T07:49:03.973Z,7.93
2023-04-30T07:51:32.833Z,7.53
2023-04-30T07:54:00.275Z,8.07
2023-04-30T07:56:27.991Z,8.10
2023-04-30T07:58:55.675Z,7.40
2023-04-30T08:01:24.406Z,8.37
2023-04-30T08:03:51.852Z,8.07
2023-04-30T08:06:19.315Z,8.03
2023-04-30T08:08:48.155Z,8.00
2023-04-30T08:11:16.387Z,7.77
2023-04-30T08:13:43.805Z,8.00
2023-04-30T08:16:11.376Z,7.90
2023-04-30T08:18:43.823Z,7.77
2023-04-30T08:21:11.418Z,7.67
2023-04-30T08:23:38.859Z,8.20
2023-04-30T08:26:06.380Z,7.87
2023-04-30T08:28:33.818Z,6.83
2023-04-30T08:31:01.660Z,7.60
2023-04-30T08:33:29.017Z,7.77
2023-04-30T08:35:57.744Z,6.93
2023-04-30T08:38:26.936Z,8.00
2023-04-30T08:40:57.749Z,7.57
2023-04-30T08:43:25.140Z,6.80
2023-04-30T08:45:53.006Z,8.03
2023-04-30T08:48:22.105Z,7.80
2023-04-30T08:50:49.460Z,7.10
2023-04-30T08:53:20.950Z,6.90
2023-04-30T08:55:48.782Z,6.50
2023-04-30T08:58:16.176Z,6.70
2023-04-30T09:00:43.548Z,6.23
2023-04-30T09:03:11.037Z,7.07
2023-04-30T09:05:39.042Z,6.97
2023-04-30T09:08:07.588Z,6.63
2023-04-30T09:10:36.613Z,6.07
2023-04-30T09:13:05.247Z,6.77
2023-04-30T09:15:33.102Z,6.27
2023-04-30T09:18:07.509Z,6.30
2023-04-30T09:20:35.208Z,6.30
2023-04-30T09:23:06.693Z,5.73
2023-04-30T09:25:41.049Z,6.13
2023-04-30T09:28:12.181Z,5.50
2023-04-30T09:30:39.912Z,5.83
2023-04-30T09:33:09.902Z,5.43
2023-04-30T09:35:39.851Z,5.27
2023-04-30T09:38:07.443Z,5.00
2023-04-30T09:40:38.192Z,4.30
2023-04-30T09:43:07.368Z,4.73
2023-04-30T09:45:41.589Z,4.47
2023-04-30T09:48:17.201Z,4.00
2023-04-30T09:50:47.313Z,4.63
2023-04-30T09:53:15.071Z,4.80
2023-04-30T09:55:43.917Z,4.23
2023-04-30T09:58:13.241Z,4.30
2023-04-30T10:00:40.970Z,4.57
2023-04-30T10:03:09.393Z,4.80
2023-04-30T10:05:38.333Z,3.90
2023-04-30T10:08:06.843Z,4.27
2023-04-30T10:10:34.363Z,4.00
2023-04-30T10:13:06.517Z,4.00
2023-04-30T10:15:39.903Z,4.13
2023-04-30T10:18:09.862Z,3.73
2023-04-30T10:20:37.922Z,4.10
2023-04-30T10:23:05.688Z,3.43
2023-04-30T10:25:33.607Z,3.77
2023-04-30T10:28:03.232Z,3.93
2023-04-30T10:30:32.719Z,3.63
2023-04-30T10:33:07.787Z,3.50
2023-04-30T10:35:40.781Z,3.23
2023-04-30T10:38:13.810Z,3.80
2023-04-30T10:40:41.251Z,3.23
2023-04-30T10:43:08.704Z,3.37
2023-04-30T10:45:37.143Z,2.73
2023-04-30T10:48:07.202Z,3.73
2023-04-30T10:50:40.486Z,3.63
2023-04-30T10:53:08.038Z,3.27
2023-04-30T10:55:45.809Z,3.07
2023-04-30T10:58:24.295Z,3.23
2023-04-30T11:00:52.192Z,2.97
2023-04-30T11:03:23.011Z,3.30
2023-04-30T11:05:50.637Z,3.27
2023-04-30T11:08:21.010Z,2.87
2023-04-30T11:10:58.639Z,3.37
2023-04-30T11:13:27.528Z,3.47
2023-04-30T11:15:55.289Z,3.10
2023-04-30T11:18:28.057Z,3.03
2023-04-30T11:20:58.042Z,2.80
2023-04-30T11:23:38.383Z,3.27
2023-04-30T11:26:08.030Z,2.93
2023-04-30T11:28:35.969Z,3.40
2023-04-30T11:31:03.948Z,3.00
2023-04-30T11:33:33.612Z,3.33
2023-04-30T11:36:01.785Z,2.63
2023-04-30T11:38:30.001Z,3.20
2023-04-30T11:40:57.730Z,3.13
2023-04-30T11:43:25.970Z,3.00
2023-04-30T11:46:07.234Z,3.17
2023-04-30T11:48:36.761Z,3.10
2023-04-30T11:51:04.674Z,3.30
2023-04-30T11:53:32.889Z,2.73
2023-04-30T11:56:03.614Z,2.90
2023-04-30T11:58:34.426Z,2.97
2023-04-30T12:01:02.281Z,3.40
2023-04-30T12:03:30.875Z,3.33
2023-04-30T12:05:59.686Z,3.00
2023-04-30T12:08:27.129Z,3.70
2023-04-30T12:10:54.530Z,3.47
2023-04-30T12:13:21.934Z,2.80
2023-04-30T12:15:59.062Z,2.90
2023-04-30T12:18:26.825Z,2.87
2023-04-30T12:20:54.625Z,3.03
2023-04-30T12:23:23.421Z,2.23
2023-04-30T12:25:50.882Z,2.80
2023-04-30T12:28:18.314Z,2.63
2023-04-30T12:30:46.156Z,2.40
2023-04-30T12:33:13.585Z,2.90
2023-04-30T12:35:43.348Z,2.40
2023-04-30T12:38:10.783Z,3.00
2023-04-30T12:40:40.735Z,2.80
2023-04-30T12:43:08.771Z,2.83
2023-04-30T12:45:46.631Z,2.60
2023-04-30T12:48:15.036Z,2.63
2023-04-30T12:50:42.880Z,2.70
2023-04-30T12:53:10.277Z,2.40
2023-04-30T12:55:39.671Z,2.77
2023-04-30T12:58:08.482Z,2.67
2023-04-30T13:00:48.814Z,2.37
2023-04-30T13:03:17.132Z,2.67
2023-04-30T13:05:47.361Z,2.43
2023-04-30T13:08:14.753Z,2.37
2023-04-30T13:10:43.515Z,2.50
2023-04-30T13:13:11.153Z,2.90
2023-04-30T13:15:38.733Z,2.73
2023-04-30T13:18:08.746Z,2.47
2023-04-30T13:20:36.230Z,2.50
2023-04-30T13:23:03.783Z,2.60
2023-04-30T13:25:31.303Z,2.80
2023-04-30T13:28:00.178Z,2.40
2023-04-30T13:30:27.586Z,2.43
2023-04-30T13:32:55.044Z,2.30
2023-04-30T13:35:22.556Z,2.20
2023-04-30T13:37:52.454Z,2.40
2023-04-30T13:40:20.120Z,2.10
2023-04-30T13:42:48.796Z,2.60
2023-04-30T13:45:17.655Z,2.50
2023-04-30T13:47:45.212Z,2.60
2023-04-30T13:50:12.854Z,2.07
2023-04-30T13:52:40.252Z,2.30
2023-04-30T13:55:08.434Z,2.60
2023-04-30T13:57:35.850Z,2.50
2023-04-30T14:00:06.120Z,2.47
2023-04-30T14:02:36.563Z,2.60
2023-04-30T14:05:06.688Z,2.10
2023-04-30T14:07:34.928Z,2.70
2023-04-30T14:10:02.965Z,2.97
2023-04-30T14:12:31.074Z,2.80
2023-04-30T14:14:59.060Z,2.80
2023-04-30T14:17:27.664Z,2.70
2023-04-30T14:19:56.875Z,2.63
2023-04-30T14:22:24.511Z,2.50
2023-04-30T14:24:52.853Z,2.33
2023-04-30T14:27:21.144Z,2.50
2023-04-30T14:29:48.574Z,2.87
2023-04-30T14:32:16.052Z,2.33
2023-04-30T14:34:44.644Z,2.23
2023-04-30T14:37:13.545Z,2.50
2023-04-30T14:39:40.935Z,2.20
2023-04-30T14:42:08.785Z,2.43
2023-04-30T14:44:36.199Z,2.50
2023-04-30T14:47:04.026Z,2.20
2023-04-30T14:49:31.640Z,2.40
2023-04-30T14:51:59.030Z,2.83
2023-04-30T14:54:27.774Z,2.40
2023-04-30T14:56:55.160Z,2.43
2023-04-30T14:59:22.603Z,2.33
2023-04-30T15:01:50.243Z,2.60
2023-04-30T15:04:17.601Z,2.60
2023-04-30T15:06:45.099Z,2.20
2023-04-30T15:09:13.771Z,2.60
2023-04-30T15:11:42.478Z,2.30
2023-04-30T15:14:09.890Z,2.27
2023-04-30T15:16:37.441Z,2.60
2023-04-30T15:19:05.107Z,2.63
2023-04-30T15:21:32.494Z,2.80
2023-04-30T15:23:59.897Z,2.80
2023-04-30T15:26:28.867Z,3.03
2023-04-30T15:28:57.747Z,2.70
2023-04-30T15:31:25.242Z,2.27
2023-04-30T15:33:52.606Z,2.40
2023-04-30T15:36:22.215Z,2.70
2023-04-30T15:38:49.592Z,2.60
2023-04-30T15:41:17.000Z,2.50
2023-04-30T15:43:44.414Z,2.60
2023-04-30T15:46:13.205Z,2.50
2023-04-30T15:48:40.588Z,2.60
2023-04-30T15:51:08.489Z,2.70
2023-04-30T15:53:36.033Z,2.60
2023-04-30T15:56:04.466Z,2.57
2023-04-30T15:58:31.902Z,2.70
2023-04-30T16:00:59.257Z,2.80
2023-04-30T16:03:28.159Z,2.50
2023-04-30T16:05:55.913Z,2.67
2023-04-30T16:08:23.424Z,2.40
2023-04-30T16:10:50.865Z,2.83
2023-04-30T16:13:18.232Z,2.50
2023-04-30T16:15:45.637Z,2.40
2023-04-30T16:18:13.043Z,2.70
2023-04-30T16:20:42.783Z,2.83
2023-04-30T16:23:10.181Z,3.00
2023-04-30T16:25:37.564Z,2.80
2023-04-30T16:28:05.103Z,2.73
2023-04-30T16:30:33.364Z,2.70
2023-04-30T16:33:00.817Z,2.50
2023-04-30T16:35:28.265Z,2.90
2023-04-30T16:37:57.024Z,2.77
2023-04-30T16:40:24.423Z,2.80
2023-04-30T16:42:52.045Z,2.70
2023-04-30T16:45:19.425Z,2.60
2023-04-30T16:47:48.383Z,3.17
2023-04-30T16:50:15.994Z,2.90
2023-04-30T16:52:44.512Z,2.70
2023-04-30T16:55:13.292Z,2.90
2023-04-30T16:57:41.170Z,2.73
2023-04-30T17:00:13.794Z,2.80
2023-04-30T17:02:42.484Z,2.63
2023-04-30T17:05:10.700Z,3.33
2023-04-30T17:07:38.103Z,2.80
2023-04-30T17:10:06.490Z,2.90
2023-04-30T17:12:35.249Z,2.70
2023-04-30T17:15:03.694Z,2.90
2023-04-30T17:17:31.486Z,3.30
2023-04-30T17:19:58.954Z,3.03
2023-04-30T17:22:26.421Z,3.20
2023-04-30T17:24:53.872Z,3.50
2023-04-30T17:27:21.264Z,3.10
2023-04-30T17:29:50.764Z,3.07
2023-04-30T17:32:18.792Z,3.23
2023-04-30T17:34:46.893Z,3.27
2023-04-30T17:37:14.298Z,3.23
2023-04-30T17:39:41.690Z,2.87
2023-04-30T17:42:09.938Z,3.20
2023-04-30T17:44:37.351Z,3.53
2023-04-30T17:47:06.134Z,3.17
2023-04-30T17:49:33.555Z,2.90
2023-04-30T17:52:01.217Z,2.90
2023-04-30T17:54:29.680Z,2.80
2023-04-30T17:56:59.014Z,3.00
2023-04-30T17:59:26.707Z,2.87
2023-04-30T18:01:54.263Z,3.13
2023-04-30T18:04:23.234Z,3.10
2023-04-30T18:06:50.926Z,3.40
2023-04-30T18:09:18.682Z,3.33
2023-04-30T18:11:46.073Z,3.23
2023-04-30T18:14:13.436Z,3.30
2023-04-30T18:16:41.073Z,3.17
2023-04-30T18:19:08.512Z,3.20
2023-04-30T18:21:37.259Z,3.00
2023-04-30T18:24:04.900Z,3.67
2023-04-30T18:26:32.236Z,3.23
2023-04-30T18:28:59.620Z,3.97
2023-04-30T18:31:28.350Z,3.90
2023-04-30T18:33:55.689Z,4.93
2023-04-30T18:36:23.507Z,3.07
2023-04-30T18:38:52.350Z,3.00
2023-04-30T18:41:21.429Z,2.97
2023-04-30T18:43:48.901Z,3.17
2023-04-30T18:46:16.531Z,3.17
2023-04-30T18:48:43.979Z,3.40
2023-04-30T18:51:11.454Z,4.07
2023-04-30T18:53:38.853Z,3.33
2023-04-30T18:56:07.962Z,3.47
2023-04-30T18:58:35.328Z,4.10
2023-04-30T19:01:03.047Z,4.03
2023-04-30T19:03:30.886Z,3.83
2023-04-30T19:05:58.608Z,3.50
2023-04-30T19:08:26.288Z,3.60
2023-04-30T19:10:54.493Z,3.60
2023-04-30T19:13:23.186Z,3.47
2023-04-30T19:15:52.340Z,3.20
2023-04-30T19:18:20.105Z,3.50
2023-04-30T19:20:57.029Z,3.33
2023-04-30T19:23:24.707Z,3.63
2023-04-30T19:25:52.085Z,3.53
2023-04-30T19:28:19.448Z,3.40
2023-04-30T19:30:48.175Z,3.67
2023-04-30T19:33:15.666Z,3.53
2023-04-30T19:35:43.084Z,3.93
2023-04-30T19:38:10.452Z,3.63
2023-04-30T19:40:37.858Z,3.37
2023-04-30T19:43:05.252Z,3.40
2023-04-30T19:45:32.680Z,3.33
2023-04-30T19:48:01.590Z,3.50
2023-04-30T19:50:29.061Z,8.27
2023-04-30T19:52:56.454Z,7.40
2023-04-30T19:55:23.849Z,6.17
2023-04-30T19:57:51.230Z,4.60
2023-04-30T20:00:18.650Z,3.77
2023-04-30T20:02:47.487Z,3.93
2023-04-30T20:05:16.530Z,3.70
2023-04-30T20:07:43.981Z,4.03
2023-04-30T20:10:11.475Z,3.93
2023-04-30T20:12:38.877Z,3.43
2023-04-30T20:15:06.619Z,3.90
2023-04-30T20:17:35.912Z,4.07
2023-04-30T20:20:03.777Z,4.00
2023-04-30T20:22:32.559Z,3.63
2023-04-30T20:25:02.433Z,4.10
2023-04-30T20:27:29.941Z,4.07
2023-04-30T20:29:57.527Z,4.60
2023-04-30T20:32:25.318Z,4.03
2023-04-30T20:34:53.955Z,4.20
2023-04-30T20:37:21.351Z,4.10
2023-04-30T20:39:50.074Z,4.83
2023-04-30T20:42:17.708Z,4.70
2023-04-30T20:44:46.221Z,4.57
2023-04-30T20:47:14.309Z,4.27
2023-04-30T20:49:43.428Z,4.27
2023-04-30T20:52:12.007Z,4.37
2023-04-30T20:54:39.612Z,4.23
2023-04-30T20:57:08.941Z,4.23
2023-04-30T20:59:36.739Z,4.00
2023-04-30T21:02:04.357Z,4.13
2023-04-30T21:04:31.992Z,3.97
2023-04-30T21:06:59.370Z,4.00
2023-04-30T21:09:26.778Z,4.03
2023-04-30T21:11:54.249Z,3.60
2023-04-30T21:14:22.981Z,3.80
2023-04-30T21:16:51.199Z,3.20
2023-04-30T21:19:18.769Z,3.70
2023-04-30T21:21:46.386Z,3.80
2023-04-30T21:24:13.793Z,4.03
2023-04-30T21:26:41.575Z,4.07
2023-04-30T21:29:08.976Z,3.47
2023-04-30T21:31:38.088Z,3.47
2023-04-30T21:34:05.498Z,4.37
2023-04-30T21:36:32.878Z,3.73
2023-04-30T21:39:00.300Z,3.90
2023-04-30T21:41:28.013Z,4.10
2023-04-30T21:43:55.991Z,4.20
2023-04-30T21:46:24.144Z,4.27
2023-04-30T21:48:53.035Z,4.40
2023-04-30T21:51:20.530Z,4.20
2023-04-30T21:53:47.962Z,4.30
2023-04-30T21:56:16.207Z,3.90
2023-04-30T21:58:43.609Z,4.13
2023-04-30T22:01:10.985Z,4.13
2023-04-30T22:03:39.337Z,4.60
2023-04-30T22:06:08.245Z,4.27
2023-04-30T22:08:35.895Z,4.40
2023-04-30T22:11:04.549Z,4.03
2023-04-30T22:13:32.001Z,3.90
2023-04-30T22:15:59.429Z,4.37
2023-04-30T22:18:27.180Z,4.03
2023-04-30T22:20:54.609Z,4.47
2023-04-30T22:23:23.389Z,4.50
2023-04-30T22:25:50.775Z,3.87
2023-04-30T22:28:19.272Z,4.07
2023-04-30T22:30:46.799Z,3.93
2023-04-30T22:33:14.332Z,4.10
2023-04-30T22:35:41.796Z,3.83
2023-04-30T22:38:09.271Z,3.93
2023-04-30T22:40:39.084Z,4.03
2023-04-30T22:43:06.615Z,4.10
2023-04-30T22:45:36.907Z,3.77
2023-04-30T22:48:04.810Z,3.97
2023-04-30T22:50:32.286Z,3.97
2023-04-30T22:52:59.746Z,4.43
2023-04-30T22:55:27.563Z,4.10
2023-04-30T22:57:59.574Z,3.50
2023-04-30T23:00:27.668Z,4.27
2023-04-30T23:02:55.538Z,4.00
2023-04-30T23:05:23.032Z,3.93
2023-04-30T23:07:50.402Z,3.90
2023-04-30T23:10:17.901Z,3.47
2023-04-30T23:12:45.250Z,3.63
2023-04-30T23:15:14.206Z,3.93
2023-04-30T23:17:41.696Z,4.20
2023-04-30T23:20:09.670Z,4.23
2023-04-30T23:22:37.045Z,3.90
2023-04-30T23:25:04.738Z,3.63
2023-04-30T23:27:32.116Z,4.17
2023-04-30T23:29:59.605Z,3.53
2023-04-30T23:32:28.444Z,4.00
2023-04-30T23:34:55.928Z,3.30
2023-04-30T23:37:23.350Z,4.10
2023-04-30T23:39:50.762Z,3.73
2023-04-30T23:42:18.173Z,3.67
2023-04-30T23:44:45.529Z,4.00
2023-04-30T23:47:12.878Z,4.30
2023-04-30T23:49:43.556Z,4.00
2023-04-30T23:52:14.280Z,4.47
2023-04-30T23:54:41.732Z,4.40
2023-04-30T23:57:09.318Z,4.60
2023-04-30T23:59:36.662Z,4.27
